Time;durP1;ratioP1;P1;durP2;ratioP2;P2;SDS_P1;SDS_P2;PMS_P1;PMS_P2;Temp;Humidity;BMP_temperature;BMP_pressure;BME280_temperature;BME280_humidity;BME280_pressure;Samples;Min_cycle;Max_cycle;Signal;HPM_P1;HPM_P2
2022/11/06 00:01:14;;;;;;;17.60;4.03;;;;;;;10.70;100.00;100327.09;4789286;29;20553;-76
2022/11/06 00:03:40;;;;;;;17.35;4.50;;;;;;;10.71;100.00;100324.00;4814133;29;20723;-76
2022/11/06 00:08:53;;;;;;;15.23;4.32;;;;;;;10.71;100.00;100328.75;4798131;29;20056;-77
2022/11/06 00:11:19;;;;;;;15.90;3.95;;;;;;;10.72;100.00;100316.50;4782827;29;20442;-77
2022/11/06 00:13:46;;;;;;;17.42;4.43;;;;;;;10.72;100.00;100310.94;4814135;29;20034;-76
2022/11/06 00:16:12;;;;;;;15.45;4.07;;;;;;;10.70;100.00;100307.66;4780974;29;20042;-76
2022/11/06 00:18:38;;;;;;;17.25;3.80;;;;;;;10.71;100.00;100295.41;4825673;29;20066;-76
2022/11/06 00:21:11;;;;;;;17.25;4.38;;;;;;;10.71;100.00;100293.47;4795008;29;20046;-76
2022/11/06 00:23:37;;;;;;;19.38;4.32;;;;;;;10.72;100.00;100294.28;4796096;29;20065;-76
2022/11/06 00:26:06;;;;;;;13.80;4.85;;;;;;;10.72;100.00;100288.72;4780550;29;20535;-76
2022/11/06 00:28:32;;;;;;;17.08;3.78;;;;;;;10.72;100.00;100297.06;4790539;29;20038;-76
2022/11/06 00:31:11;;;;;;;22.55;4.60;;;;;;;10.72;100.00;100288.72;4797553;29;20041;-76
2022/11/06 00:33:36;;;;;;;14.32;3.75;;;;;;;10.72;100.00;100284.00;4811741;29;20038;-76
2022/11/06 00:36:07;;;;;;;20.77;4.55;;;;;;;10.73;100.00;100291.22;4809728;29;20034;-77
2022/11/06 00:38:32;;;;;;;19.92;4.15;;;;;;;10.73;100.00;100282.06;4810298;29;20442;-76
2022/11/06 00:41:08;;;;;;;18.92;4.00;;;;;;;10.73;100.00;100280.09;4810198;29;20037;-77
2022/11/06 00:43:34;;;;;;;16.38;3.90;;;;;;;10.74;100.00;100275.38;4773067;29;20037;-77
2022/11/06 00:46:10;;;;;;;10.48;3.78;;;;;;;10.74;100.00;100267.84;4765842;29;20038;-77
2022/11/06 00:48:36;;;;;;;12.63;3.80;;;;;;;10.76;100.00;100262.00;4766132;29;20042;-77
2022/11/06 00:51:09;;;;;;;14.50;4.10;;;;;;;10.76;100.00;100261.19;4805322;29;20045;-77
2022/11/06 00:53:35;;;;;;;18.30;4.13;;;;;;;10.75;100.00;100252.00;4810688;29;20038;-76
2022/11/06 00:56:11;;;;;;;16.58;3.53;;;;;;;10.76;100.00;100248.13;4791991;29;20035;-77
2022/11/06 00:58:36;;;;;;;13.20;3.70;;;;;;;10.76;100.00;100237.03;4808964;29;20507;-77
2022/11/06 01:01:21;;;;;;;9.77;3.60;;;;;;;10.77;100.00;100224.75;4809894;29;20042;-77
2022/11/06 01:03:51;;;;;;;14.90;3.63;;;;;;;10.76;100.00;100214.78;4798486;29;20507;-77
2022/11/06 01:06:25;;;;;;;14.25;3.72;;;;;;;10.77;100.00;100227.53;4794931;29;20034;-77
2022/11/06 01:08:51;;;;;;;17.10;3.80;;;;;;;10.76;100.00;100220.34;4779728;29;20038;-77
2022/11/06 01:11:19;;;;;;;14.63;3.30;;;;;;;10.77;100.00;100222.00;4779754;29;20034;-77
2022/11/06 01:13:45;;;;;;;16.45;3.53;;;;;;;10.77;100.00;100213.66;4794818;29;20062;-77
2022/11/06 01:16:12;;;;;;;13.95;3.42;;;;;;;10.76;100.00;100206.47;4809864;29;20070;-77
2022/11/06 01:18:38;;;;;;;20.02;4.57;;;;;;;10.78;100.00;100197.81;4776880;29;20035;-77
2022/11/06 01:21:18;;;;;;;11.77;3.33;;;;;;;10.77;100.00;100196.16;4797571;29;20030;-77
2022/11/06 01:23:43;;;;;;;15.25;3.47;;;;;;;10.78;100.00;100186.69;4783332;29;20087;-77
2022/11/06 01:26:09;;;;;;;12.88;3.60;;;;;;;10.77;100.00;100188.66;4798344;29;20496;-77
2022/11/06 01:28:35;;;;;;;18.52;3.72;;;;;;;10.77;100.00;100194.22;4781674;29;20035;-77
2022/11/06 01:31:10;;;;;;;13.25;4.10;;;;;;;10.78;100.00;100190.31;4798188;29;20079;-77
2022/11/06 01:33:36;;;;;;;13.77;4.22;;;;;;;10.79;100.00;100196.69;4813439;29;20034;-77
2022/11/06 01:36:01;;;;;;;17.63;3.70;;;;;;;10.79;100.00;100189.19;4797832;29;20034;-77
2022/11/06 01:38:27;;;;;;;15.60;4.45;;;;;;;10.78;100.00;100184.78;4780745;29;20049;-77
2022/11/06 01:40:52;;;;;;;15.32;4.35;;;;;;;10.80;100.00;100181.66;4796633;29;20038;-77
2022/11/06 01:43:20;;;;;;;16.45;4.10;;;;;;;10.80;100.00;100182.50;4802794;29;20070;-77
2022/11/06 01:45:52;;;;;;;15.80;4.07;;;;;;;10.80;100.00;100176.94;4798349;29;20050;-77
2022/11/06 01:48:24;;;;;;;13.80;3.50;;;;;;;10.79;100.00;100182.81;4799543;29;20034;-77
2022/11/06 01:50:53;;;;;;;14.10;3.72;;;;;;;10.82;100.00;100184.97;4813046;29;20030;-77
2022/11/06 01:53:18;;;;;;;19.02;3.75;;;;;;;10.82;100.00;100188.56;4816079;29;20502;-77
2022/11/06 01:55:45;;;;;;;16.80;3.50;;;;;;;10.82;100.00;100180.25;4831191;29;20030;-77
2022/11/06 01:58:14;;;;;;;20.23;3.63;;;;;;;10.83;100.00;100176.31;4830802;29;20071;-77
2022/11/06 02:00:40;;;;;;;14.77;3.30;;;;;;;10.84;100.00;100174.41;4831057;29;20081;-77
2022/11/06 02:03:05;;;;;;;14.02;3.10;;;;;;;10.83;100.00;100168.00;4818491;29;20539;-77
2022/11/06 02:05:30;;;;;;;8.55;3.03;;;;;;;10.85;100.00;100170.47;4834524;29;20037;-77
2022/11/06 02:07:56;;;;;;;11.85;2.92;;;;;;;10.85;100.00;100167.69;4834794;29;20102;-77
2022/11/06 02:10:22;;;;;;;19.27;3.20;;;;;;;10.84;100.00;100166.06;4834641;29;20038;-77
2022/11/06 02:13:11;;;;;;;9.73;3.00;;;;;;;10.85;100.00;100173.25;4819638;29;20548;-77
2022/11/06 02:16:03;;;;;;;15.40;3.20;;;;;;;10.88;100.00;100161.53;4804889;29;20081;-77
2022/11/06 02:18:38;;;;;;;13.65;3.13;;;;;;;10.86;100.00;100161.00;4834159;29;20138;-77
2022/11/06 02:21:23;;;;;;;17.02;3.78;;;;;;;10.87;100.00;100174.59;4815233;29;20495;-78
2022/11/06 02:24:03;;;;;;;11.43;3.28;;;;;;;10.87;100.00;100168.22;4847124;29;20105;-77
2022/11/06 02:26:32;;;;;;;12.75;3.10;;;;;;;10.87;100.00;100157.94;4835426;29;20042;-78
2022/11/06 02:29:03;;;;;;;19.15;3.42;;;;;;;10.87;100.00;100144.03;4830739;29;20045;-77
2022/11/06 02:31:29;;;;;;;13.05;3.05;;;;;;;10.87;100.00;100135.72;4800403;29;20049;-77
2022/11/06 02:33:59;;;;;;;16.88;3.30;;;;;;;10.89;100.00;100127.06;4829544;29;20041;-77
2022/11/06 02:36:28;;;;;;;13.98;3.83;;;;;;;10.91;100.00;100113.69;4811553;29;20483;-77
2022/11/06 02:38:56;;;;;;;13.00;3.20;;;;;;;10.90;100.00;100106.50;4830468;29;20040;-77
2022/11/06 02:41:24;;;;;;;15.77;3.40;;;;;;;10.90;100.00;100104.53;4815283;29;20116;-77
2022/11/06 02:43:54;;;;;;;16.63;3.45;;;;;;;10.90;100.00;100098.16;4814878;29;20108;-77
2022/11/06 02:46:27;;;;;;;10.85;2.83;;;;;;;10.89;100.00;100097.34;4811991;29;20046;-78
2022/11/06 02:48:57;;;;;;;13.82;3.40;;;;;;;10.90;100.00;100112.88;4827490;29;20057;-77
2022/11/06 02:51:25;;;;;;;22.45;4.13;;;;;;;10.92;100.00;100087.53;4829936;29;20399;-77
2022/11/06 02:53:50;;;;;;;13.13;3.30;;;;;;;10.92;100.00;100099.50;4829759;29;20030;-77
2022/11/06 02:56:21;;;;;;;16.92;3.45;;;;;;;10.91;100.00;100095.06;4814961;29;20548;-77
2022/11/06 02:58:59;;;;;;;11.55;3.60;;;;;;;10.92;100.00;100085.63;4815018;29;20048;-77
2022/11/06 03:01:33;;;;;;;14.65;3.45;;;;;;;10.92;100.00;100077.28;4815327;29;20026;-77
2022/11/06 03:04:05;;;;;;;17.13;4.03;;;;;;;10.93;100.00;100084.47;4814709;29;20038;-77
2022/11/06 03:06:42;;;;;;;12.75;3.58;;;;;;;10.93;100.00;100081.69;4815043;29;20480;-77
2022/11/06 03:09:11;;;;;;;16.02;3.65;;;;;;;10.93;100.00;100078.91;4814553;29;20086;-77
2022/11/06 03:11:39;;;;;;;14.45;3.85;;;;;;;10.93;100.00;100087.25;4814654;29;20093;-77
2022/11/06 03:14:28;;;;;;;17.60;3.38;;;;;;;10.95;100.00;100071.09;4830276;29;20102;-77
2022/11/06 03:16:59;;;;;;;16.70;4.03;;;;;;;10.95;100.00;100071.09;4814838;29;20044;-77
2022/11/06 03:19:31;;;;;;;9.55;3.25;;;;;;;10.98;100.00;100066.03;4829353;29;20037;-77
2022/11/06 03:22:10;;;;;;;13.43;4.20;;;;;;;10.98;100.00;100058.56;4800123;29;20045;-77
2022/11/06 03:24:55;;;;;;;12.90;3.97;;;;;;;10.99;100.00;100048.25;4815623;29;20040;-77
2022/11/06 03:27:24;;;;;;;11.93;4.45;;;;;;;11.01;100.00;100046.00;4830740;29;20046;-77
2022/11/06 03:30:00;;;;;;;11.15;3.92;;;;;;;11.02;100.00;100053.19;4843621;29;20113;-77
2022/11/06 03:32:50;;;;;;;12.48;4.03;;;;;;;11.03;100.00;100043.72;4829122;29;20046;-77
2022/11/06 03:35:23;;;;;;;9.32;3.63;;;;;;;11.01;100.00;100024.59;4801983;29;20545;-76
2022/11/06 03:37:58;;;;;;;12.52;3.63;;;;;;;11.01;100.00;100023.78;4829382;29;20030;-77
2022/11/06 03:40:26;;;;;;;11.65;3.50;;;;;;;11.02;100.00;100030.97;4829223;29;20053;-77
2022/11/06 03:42:53;;;;;;;14.48;4.18;;;;;;;11.02;100.00;100030.97;4798474;29;20109;-77
2022/11/06 03:45:20;;;;;;;8.82;3.38;;;;;;;11.01;100.00;100026.56;4814143;29;20170;-77
2022/11/06 03:48:08;;;;;;;10.77;3.92;;;;;;;11.03;100.00;100027.03;4814192;29;20564;-77
2022/11/06 03:50:39;;;;;;;12.00;3.80;;;;;;;11.06;100.00;100020.88;4828437;29;20686;-77
2022/11/06 03:53:41;;;;;;;11.65;4.40;;;;;;;11.06;100.00;100015.31;4813841;29;20435;-77
2022/11/06 03:56:17;;;;;;;9.30;3.60;;;;;;;11.06;100.00;99998.63;4816174;29;20608;-77
2022/11/06 03:58:44;;;;;;;16.90;5.97;;;;;;;11.07;100.00;100003.06;4829187;29;20135;-77
2022/11/06 04:01:10;;;;;;;13.68;4.45;;;;;;;11.08;100.00;99996.38;4829267;29;20432;-77
2022/11/06 04:04:06;;;;;;;12.57;4.20;;;;;;;11.05;100.00;99997.00;4814026;29;20662;-77
2022/11/06 04:06:56;;;;;;;13.93;4.72;;;;;;;11.06;100.00;100004.19;4804198;29;20046;-77
2022/11/06 04:14:53;;;;;;;15.13;5.13;;;;;;;11.10;100.00;99997.72;4818781;29;20124;-77
2022/11/06 04:17:19;;;;;;;16.98;5.05;;;;;;;11.12;100.00;99991.88;4815877;29;20040;-77
2022/11/06 04:19:50;;;;;;;11.80;5.25;;;;;;;11.11;100.00;99993.78;4840309;29;20030;-77
2022/11/06 04:22:24;;;;;;;17.73;6.05;;;;;;;11.13;100.00;99987.94;4813601;29;20037;-77
2022/11/06 04:27:37;;;;;;;13.57;4.93;;;;;;;11.13;100.00;99982.38;4843556;29;20038;-77
2022/11/06 04:30:10;;;;;;;9.98;5.13;;;;;;;11.12;100.00;99964.88;4844856;29;20069;-77
2022/11/06 04:32:46;;;;;;;11.88;3.92;;;;;;;11.14;100.00;99973.75;4813474;29;20424;-77
2022/11/06 04:35:20;;;;;;;11.00;3.72;;;;;;;11.15;100.00;99971.78;4827515;29;20615;-77
2022/11/06 04:38:09;;;;;;;8.15;3.35;;;;;;;11.16;100.00;99965.09;4828460;29;20034;-76
2022/11/06 04:40:53;;;;;;;6.90;3.47;;;;;;;11.17;100.00;99972.28;4815553;29;20033;-77
2022/11/06 04:43:43;;;;;;;7.20;2.97;;;;;;;11.18;100.00;99943.38;4828286;29;20058;-76
2022/11/06 04:46:10;;;;;;;6.88;3.08;;;;;;;11.15;100.00;99953.16;4848535;29;20042;-77
2022/11/06 04:48:36;;;;;;;5.38;3.20;;;;;;;11.16;100.00;99942.84;4812833;29;20057;-77
2022/11/06 04:51:02;;;;;;;7.80;3.42;;;;;;;11.18;100.00;99943.38;4812917;29;20046;-77
2022/11/06 04:53:29;;;;;;;5.68;3.22;;;;;;;11.18;100.00;99935.03;4812777;29;20075;-77
2022/11/06 04:55:59;;;;;;;3.75;3.00;;;;;;;11.18;100.00;99935.84;4782878;29;20061;-77
2022/11/06 04:58:25;;;;;;;5.43;3.17;;;;;;;11.18;100.00;99927.50;4813040;29;20038;-77
2022/11/06 05:00:51;;;;;;;10.45;3.55;;;;;;;11.19;100.00;99925.53;4813180;29;20022;-77
2022/11/06 05:03:17;;;;;;;7.18;3.28;;;;;;;11.20;100.00;99918.88;4828225;29;20046;-77
2022/11/06 05:05:42;;;;;;;7.95;2.97;;;;;;;11.22;100.00;99908.25;4827983;29;20033;-77
2022/11/06 05:08:15;;;;;;;5.30;3.00;;;;;;;11.19;100.00;99894.97;4812957;29;20058;-76
2022/11/06 05:10:41;;;;;;;7.13;2.95;;;;;;;11.23;100.00;99901.56;4831019;29;20049;-77
2022/11/06 05:13:07;;;;;;;7.75;3.33;;;;;;;11.23;100.00;99898.78;4809522;29;20078;-77
2022/11/06 05:15:32;;;;;;;5.85;3.65;;;;;;;11.24;100.00;99894.03;4797843;29;20441;-77
2022/11/06 05:17:58;;;;;;;6.18;3.17;;;;;;;11.22;100.00;99888.78;4828267;29;20505;-77
2022/11/06 05:20:24;;;;;;;7.50;3.25;;;;;;;11.24;100.00;99886.53;4794721;29;20037;-77
2022/11/06 05:22:59;;;;;;;8.38;3.40;;;;;;;11.25;100.00;99881.78;4825668;29;20044;-77
2022/11/06 05:25:28;;;;;;;13.25;3.92;;;;;;;11.25;100.00;99871.47;4800348;29;20026;-76
2022/11/06 05:27:53;;;;;;;10.68;3.60;;;;;;;11.26;100.00;99866.75;4856555;29;20531;-76
2022/11/06 05:30:19;;;;;;;9.18;3.25;;;;;;;11.24;100.00;99860.69;4843337;29;20056;-77
2022/11/06 05:32:44;;;;;;;7.85;3.15;;;;;;;11.23;100.00;99862.66;4815815;29;20595;-77
2022/11/06 05:35:10;;;;;;;12.07;3.90;;;;;;;11.26;100.00;99870.34;4834371;29;20031;-77
2022/11/06 05:37:35;;;;;;;10.90;3.70;;;;;;;11.27;100.00;99876.72;4797463;29;20038;-76
2022/11/06 05:40:01;;;;;;;8.10;3.88;;;;;;;11.25;100.00;99868.69;4812841;29;20042;-76
2022/11/06 05:42:26;;;;;;;8.95;3.30;;;;;;;11.25;100.00;99877.03;4794842;29;20499;-76
2022/11/06 05:44:52;;;;;;;10.13;3.47;;;;;;;11.28;100.00;99872.81;4827969;29;20038;-77
2022/11/06 05:47:17;;;;;;;8.57;3.45;;;;;;;11.25;100.00;99879.81;4812801;29;20034;-77
2022/11/06 05:49:43;;;;;;;8.32;3.63;;;;;;;11.25;100.00;99863.13;4843628;29;20497;-76
2022/11/06 05:52:08;;;;;;;9.73;3.58;;;;;;;11.26;100.00;99862.03;4827665;29;20483;-76
2022/11/06 05:54:34;;;;;;;10.48;3.55;;;;;;;11.27;100.00;99858.09;4812350;29;20030;-77
2022/11/06 05:56:59;;;;;;;7.20;3.30;;;;;;;11.26;100.00;99863.97;4842923;29;20048;-77
2022/11/06 05:59:25;;;;;;;5.22;3.47;;;;;;;11.26;100.00;99850.09;4812572;29;20036;-76
2022/11/06 06:01:50;;;;;;;7.65;3.40;;;;;;;11.28;100.00;99851.41;4827574;29;20030;-77
2022/11/06 06:04:16;;;;;;;8.70;3.80;;;;;;;11.29;100.00;99841.13;4827323;29;20034;-77
2022/11/06 06:06:41;;;;;;;8.45;3.40;;;;;;;11.26;100.00;99837.00;4829936;29;20506;-76
2022/11/06 06:09:07;;;;;;;7.88;3.22;;;;;;;11.28;100.00;99840.28;4812558;29;20034;-77
2022/11/06 06:11:32;;;;;;;5.68;3.13;;;;;;;11.27;100.00;99824.72;4825897;29;20098;-77
2022/11/06 06:13:59;;;;;;;5.43;3.10;;;;;;;11.26;100.00;99827.84;4831969;29;20045;-76
2022/11/06 06:16:24;;;;;;;8.50;3.22;;;;;;;11.27;100.00;99816.41;4819017;29;20030;-77
2022/11/06 06:18:50;;;;;;;7.95;3.53;;;;;;;11.29;100.00;99819.69;4803419;29;20420;-76
2022/11/06 06:21:15;;;;;;;8.38;3.05;;;;;;;11.29;100.00;99819.69;4833611;29;20062;-77
2022/11/06 06:23:41;;;;;;;10.32;3.08;;;;;;;11.25;100.00;99813.09;4833648;29;20038;-77
2022/11/06 06:26:06;;;;;;;6.65;3.53;;;;;;;11.24;100.00;99811.47;4818394;29;20037;-77
2022/11/06 06:28:32;;;;;;;8.50;3.88;;;;;;;11.25;100.00;99807.53;4816505;29;20046;-77
2022/11/06 06:30:57;;;;;;;5.88;3.05;;;;;;;11.23;100.00;99804.28;4815697;29;20042;-77
2022/11/06 06:33:23;;;;;;;10.02;3.80;;;;;;;11.28;100.00;99803.31;4830368;29;20061;-77
2022/11/06 06:35:48;;;;;;;7.53;4.13;;;;;;;11.27;100.00;99815.56;4815022;29;20437;-77
2022/11/06 06:38:14;;;;;;;6.18;3.63;;;;;;;11.23;100.00;99812.63;4846611;29;20042;-77
2022/11/06 06:40:39;;;;;;;6.57;3.60;;;;;;;11.24;100.00;99805.91;4846833;29;20042;-77
2022/11/06 06:43:05;;;;;;;9.35;3.95;;;;;;;11.25;100.00;99807.53;4830109;29;20376;-77
2022/11/06 06:45:30;;;;;;;7.03;3.47;;;;;;;11.25;100.00;99809.50;4815176;29;20535;-77
2022/11/06 06:48:01;;;;;;;5.47;3.33;;;;;;;11.24;100.00;99807.88;4846643;29;20045;-76
2022/11/06 06:50:26;;;;;;;7.75;3.45;;;;;;;11.24;100.00;99807.88;4814701;29;20499;-77
2022/11/06 06:52:55;;;;;;;5.45;3.17;;;;;;;11.23;100.00;99793.16;4830179;29;20106;-77
2022/11/06 06:55:21;;;;;;;6.75;3.13;;;;;;;11.23;100.00;99795.94;4811985;29;20555;-77
2022/11/06 06:57:46;;;;;;;4.82;3.15;;;;;;;11.22;100.00;99791.50;4830118;29;20029;-77
2022/11/06 07:00:12;;;;;;;4.65;3.03;;;;;;;11.24;100.00;99789.22;4829971;29;20038;-76
2022/11/06 07:02:37;;;;;;;6.85;3.20;;;;;;;11.26;100.00;99780.59;4814980;29;20167;-76
2022/11/06 07:05:03;;;;;;;5.95;3.00;;;;;;;11.25;100.00;99767.81;4814737;29;20038;-77
2022/11/06 07:07:28;;;;;;;5.60;3.00;;;;;;;11.24;100.00;99764.22;4814684;29;20041;-76
2022/11/06 07:09:54;;;;;;;6.38;3.47;;;;;;;11.26;100.00;99759.19;4829552;29;20035;-77
2022/11/06 07:12:19;;;;;;;5.43;2.92;;;;;;;11.23;100.00;99751.47;4829453;29;20118;-77
2022/11/06 07:14:45;;;;;;;7.82;2.92;;;;;;;11.24;100.00;99749.50;4846138;29;20033;-76
2022/11/06 07:17:10;;;;;;;4.57;2.70;;;;;;;11.24;100.00;99750.31;4828999;29;20038;-77
2022/11/06 07:19:36;;;;;;;5.72;3.08;;;;;;;11.23;100.00;99733.94;4814021;29;20026;-76
2022/11/06 07:22:01;;;;;;;5.88;2.70;;;;;;;11.22;100.00;99743.44;4846074;29;20045;-76
2022/11/06 07:24:27;;;;;;;5.13;2.60;;;;;;;11.22;100.00;99749.81;4829542;29;20037;-76
2022/11/06 07:26:52;;;;;;;7.30;2.30;;;;;;;11.19;100.00;99753.22;4814336;29;20029;-76
2022/11/06 07:29:18;;;;;;;7.07;2.50;;;;;;;11.19;100.00;99751.25;4799097;29;20030;-76
2022/11/06 07:31:43;;;;;;;4.38;2.08;;;;;;;11.21;100.00;99756.53;4845876;29;20399;-77
2022/11/06 07:34:09;;;;;;;3.92;2.30;;;;;;;11.18;100.00;99755.19;4826694;29;20030;-77
2022/11/06 07:36:34;;;;;;;8.07;2.30;;;;;;;11.16;100.00;99749.13;4814207;29;20116;-76
2022/11/06 07:39:00;;;;;;;3.75;2.00;;;;;;;11.17;100.00;99749.94;4814026;29;20067;-76
2022/11/06 07:41:25;;;;;;;6.00;2.25;;;;;;;11.16;100.00;99748.31;4845595;29;20415;-77
2022/11/06 07:43:51;;;;;;;4.75;1.95;;;;;;;11.16;100.00;99753.84;4829408;29;20038;-76
2022/11/06 07:46:16;;;;;;;4.57;2.15;;;;;;;11.15;100.00;99752.22;4829208;29;20046;-76
2022/11/06 07:48:42;;;;;;;4.25;2.00;;;;;;;11.13;100.00;99752.53;4824875;29;20446;-76
2022/11/06 07:51:08;;;;;;;4.22;1.90;;;;;;;11.13;100.00;99746.16;4795674;29;20038;-76
2022/11/06 07:53:34;;;;;;;3.08;2.03;;;;;;;11.14;100.00;99753.34;4795733;29;20520;-76
2022/11/06 07:55:59;;;;;;;3.92;1.92;;;;;;;11.11;100.00;99759.53;4781006;29;20091;-76
2022/11/06 07:58:25;;;;;;;5.35;1.80;;;;;;;11.10;100.00;99749.56;4810661;29;20034;-76
2022/11/06 08:00:52;;;;;;;5.05;2.33;;;;;;;11.11;100.00;99762.31;4810909;29;20035;-76
2022/11/06 08:03:18;;;;;;;5.70;2.42;;;;;;;11.12;100.00;99769.53;4810496;29;20034;-76
2022/11/06 08:05:43;;;;;;;5.35;2.05;;;;;;;11.10;100.00;99766.25;4810493;29;20042;-76
2022/11/06 08:08:09;;;;;;;7.95;2.60;;;;;;;11.09;100.00;99764.63;4810634;29;20113;-76
2022/11/06 08:10:39;;;;;;;5.25;2.33;;;;;;;11.10;100.00;99760.69;4820514;29;20038;-76
2022/11/06 08:13:07;;;;;;;4.43;1.83;;;;;;;11.09;100.00;99754.31;4811663;29;20113;-76
2022/11/06 08:15:32;;;;;;;5.47;2.72;;;;;;;11.09;100.00;99761.84;4796050;29;20472;-76
2022/11/06 08:17:59;;;;;;;4.85;2.20;;;;;;;11.07;100.00;99756.59;4798678;29;20049;-77
2022/11/06 08:20:24;;;;;;;8.55;2.60;;;;;;;11.07;100.00;99756.59;4810105;29;20101;-76
2022/11/06 08:22:50;;;;;;;6.70;2.60;;;;;;;11.08;100.00;99755.44;4810364;29;20031;-76
2022/11/06 08:25:15;;;;;;;7.50;2.60;;;;;;;11.05;100.00;99744.13;4811780;29;20035;-75
2022/11/06 08:27:41;;;;;;;8.57;2.72;;;;;;;11.09;100.00;99739.59;4813535;29;20034;-76
2022/11/06 08:30:07;;;;;;;6.57;2.70;;;;;;;11.08;100.00;99735.16;4829515;29;20035;-76
2022/11/06 08:32:32;;;;;;;7.20;2.42;;;;;;;11.06;100.00;99732.72;4799146;29;20095;-76
2022/11/06 08:34:58;;;;;;;10.10;2.60;;;;;;;11.07;100.00;99733.53;4825184;29;20090;-76
2022/11/06 08:37:23;;;;;;;4.32;2.13;;;;;;;11.06;100.00;99737.44;4830054;29;20511;-77
2022/11/06 08:39:48;;;;;;;4.95;2.47;;;;;;;11.05;100.00;99731.06;4826925;29;20090;-76
2022/11/06 08:42:14;;;;;;;4.85;2.45;;;;;;;11.05;100.00;99727.47;4829405;29;20054;-76
2022/11/06 08:44:41;;;;;;;4.00;2.60;;;;;;;11.07;100.00;99733.53;4804101;29;20030;-76
2022/11/06 08:47:07;;;;;;;3.97;2.28;;;;;;;11.06;100.00;99724.38;4810266;29;20122;-76
2022/11/06 08:49:33;;;;;;;6.57;2.33;;;;;;;11.06;100.00;99720.75;4835777;29;20050;-76
2022/11/06 08:51:58;;;;;;;5.38;2.67;;;;;;;11.06;100.00;99720.75;4828275;29;20045;-76
2022/11/06 08:54:23;;;;;;;5.68;2.20;;;;;;;11.06;100.00;99716.06;4844596;29;20037;-76
2022/11/06 08:56:49;;;;;;;4.07;2.17;;;;;;;11.06;100.00;99720.75;4828057;29;20057;-76
2022/11/06 08:59:14;;;;;;;3.55;1.85;;;;;;;11.08;100.00;99718.50;4828261;29;20038;-76
2022/11/06 09:01:40;;;;;;;6.10;2.47;;;;;;;11.09;100.00;99714.59;4828512;29;20135;-76
2022/11/06 09:04:06;;;;;;;4.43;2.38;;;;;;;11.06;100.00;99715.19;4812405;29;20437;-76
2022/11/06 09:06:32;;;;;;;3.70;2.17;;;;;;;11.08;100.00;99722.09;4828148;29;20045;-76
2022/11/06 09:08:57;;;;;;;6.00;2.40;;;;;;;11.09;100.00;99711.81;4844382;29;20034;-76
2022/11/06 09:11:23;;;;;;;2.65;1.90;;;;;;;11.08;100.00;99710.16;4827360;29;20034;-77
2022/11/06 09:13:49;;;;;;;3.83;2.17;;;;;;;11.09;100.00;99709.03;4827828;29;20496;-76
2022/11/06 09:16:14;;;;;;;3.80;1.80;;;;;;;11.09;100.00;99687.63;4843962;29;20059;-76
2022/11/06 09:18:40;;;;;;;4.32;2.20;;;;;;;11.09;100.00;99690.41;4844113;29;20053;-76
2022/11/06 09:21:05;;;;;;;2.90;1.92;;;;;;;11.10;100.00;99694.81;4812308;29;20082;-76
2022/11/06 09:23:31;;;;;;;4.55;2.05;;;;;;;11.11;100.00;99684.50;4844126;29;20399;-76
2022/11/06 09:25:57;;;;;;;2.47;1.83;;;;;;;11.11;100.00;99695.63;4827247;29;20030;-76
2022/11/06 09:28:22;;;;;;;3.40;2.33;;;;;;;11.12;100.00;99694.50;4827164;29;20045;-76
2022/11/06 09:30:48;;;;;;;2.80;2.08;;;;;;;11.10;100.00;99697.59;4843694;29;20074;-77
2022/11/06 09:33:13;;;;;;;5.07;2.13;;;;;;;11.11;100.00;99726.19;4844014;29;20042;-76
2022/11/06 09:35:39;;;;;;;3.92;2.40;;;;;;;11.13;100.00;99738.63;4825836;29;20102;-76
2022/11/06 09:38:06;;;;;;;3.45;2.03;;;;;;;11.13;100.00;99733.09;4827325;29;20117;-76
2022/11/06 09:40:51;;;;;;;2.33;1.48;;;;;;;11.13;100.00;99715.59;4829896;29;20106;-76
2022/11/06 09:43:44;;;;;;;2.97;1.60;;;;;;;11.14;100.00;99731.13;4837237;29;20038;-76
2022/11/06 09:46:25;;;;;;;;;;;;;;;11.13;100.00;99719.19;4837371;29;20048;-76
2022/11/06 09:49:06;;;;;;;1.80;1.05;;;;;;;11.13;100.00;99715.59;4847277;29;19924;-76
2022/11/06 09:51:45;;;;;;;2.17;1.10;;;;;;;11.13;100.00;99710.03;4831186;29;20543;-76
2022/11/06 09:54:16;;;;;;;1.92;0.77;;;;;;;11.14;100.00;99701.41;4820616;29;20049;-76
2022/11/06 09:56:42;;;;;;;2.40;0.93;;;;;;;11.14;100.00;99700.53;4815905;29;20041;-76
2022/11/06 09:59:10;;;;;;;2.13;0.85;;;;;;;11.15;100.00;99691.91;4831111;29;20034;-76
2022/11/06 10:01:55;;;;;;;1.23;0.70;;;;;;;11.16;100.00;99689.94;4830979;29;20054;-76
2022/11/06 10:04:47;;;;;;;1.38;0.82;;;;;;;11.17;100.00;99688.78;4830218;29;20503;-76
2022/11/06 10:07:27;;;;;;;3.05;1.00;;;;;;;11.17;100.00;99681.31;4816231;29;20045;-76
2022/11/06 10:09:52;;;;;;;2.63;1.00;;;;;;;11.18;100.00;99673.78;4816234;29;20048;-76
2022/11/06 10:12:58;;;;;;;2.92;0.90;;;;;;;11.19;100.00;99664.28;4830640;29;20033;-76
2022/11/06 10:15:38;;;;;;;1.77;1.08;;;;;;;11.20;100.00;99660.41;4829576;29;20470;-76
2022/11/06 10:18:29;;;;;;;2.50;1.00;;;;;;;11.22;100.00;99680.31;4831429;29;20539;-76
2022/11/06 10:21:43;;;;;;;4.15;1.27;;;;;;;11.27;100.00;99688.53;4830221;29;20041;-76
2022/11/06 10:24:21;;;;;;;3.28;1.00;;;;;;;11.26;100.00;99681.34;4821402;29;20054;-76
2022/11/06 10:26:53;;;;;;;2.42;1.10;;;;;;;11.28;100.00;99670.75;4800976;29;20089;-76
2022/11/06 10:29:39;;;;;;;3.15;1.10;;;;;;;11.31;100.00;99672.03;4816091;29;20038;-76
2022/11/06 10:32:21;;;;;;;4.15;1.27;;;;;;;11.31;100.00;99675.66;4830116;29;20147;-76
2022/11/06 10:34:48;;;;;;;6.28;1.05;;;;;;;11.35;100.00;99687.75;4841202;29;20496;-76
2022/11/06 10:37:17;;;;;;;3.15;0.98;;;;;;;11.39;100.00;99686.00;4815556;29;20089;-76
2022/11/06 10:39:43;;;;;;;2.75;1.00;;;;;;;11.39;100.00;99682.38;4817679;29;20038;-76
2022/11/06 10:42:17;;;;;;;1.92;0.90;;;;;;;11.43;100.00;99694.50;4833316;29;20045;-77
2022/11/06 10:44:52;;;;;;;2.47;1.13;;;;;;;11.48;100.00;99696.31;4849420;29;20045;-76
2022/11/06 10:47:21;;;;;;;3.78;1.02;;;;;;;11.52;100.00;99689.81;4834387;29;20402;-76
2022/11/06 10:49:49;;;;;;;3.03;1.25;;;;;;;11.58;100.00;99693.25;4822093;29;20069;-76
2022/11/06 10:52:36;;;;;;;3.40;1.20;;;;;;;11.65;100.00;99699.19;4830121;29;20030;-76
2022/11/06 10:55:24;;;;;;;2.30;1.20;;;;;;;11.71;100.00;99688.75;4846268;29;20126;-76
2022/11/06 10:58:01;;;;;;;4.55;1.70;;;;;;;11.77;100.00;99691.03;4832488;29;20098;-76
2022/11/06 11:00:26;;;;;;;4.28;1.77;;;;;;;11.85;100.00;99698.63;4815245;29;20030;-76
2022/11/06 11:02:54;;;;;;;6.55;1.25;;;;;;;11.89;100.00;99689.63;4814681;29;20034;-77
2022/11/06 11:05:20;;;;;;;4.07;1.40;;;;;;;11.95;100.00;99686.41;4814251;29;20061;-77
2022/11/06 11:07:47;;;;;;;3.33;1.30;;;;;;;12.01;100.00;99695.41;4799681;29;20455;-77
2022/11/06 11:10:27;;;;;;;2.95;1.23;;;;;;;12.10;100.00;99682.34;4834717;29;20026;-77
2022/11/06 11:12:54;;;;;;;3.40;1.60;;;;;;;12.14;100.00;99677.75;4829446;29;20098;-77
2022/11/06 11:15:23;;;;;;;2.63;1.20;;;;;;;12.21;100.00;99674.50;4795813;29;20046;-76
2022/11/06 11:18:07;;;;;;;3.58;1.42;;;;;;;12.32;100.00;99672.22;4814344;29;20041;-76
2022/11/06 11:20:34;;;;;;;4.88;1.73;;;;;;;12.38;100.00;99666.16;4845387;29;20042;-77
2022/11/06 11:23:21;;;;;;;5.60;1.95;;;;;;;12.48;100.00;99659.44;4814503;29;20487;-77
2022/11/06 11:25:47;;;;;;;6.55;1.67;;;;;;;12.53;100.00;99653.69;4793361;29;20102;-77
2022/11/06 11:28:34;;;;;;;6.00;1.85;;;;;;;12.59;100.00;99666.34;4829442;29;20066;-76
2022/11/06 11:31:12;;;;;;;5.13;1.70;;;;;;;12.68;100.00;99657.97;4830652;29;20072;-77
2022/11/06 11:33:38;;;;;;;7.95;2.03;;;;;;;12.73;100.00;99669.78;4798721;29;20036;-77
2022/11/06 11:36:05;;;;;;;7.35;1.67;;;;;;;12.80;100.00;99671.22;4783623;29;20029;-77
2022/11/06 11:38:31;;;;;;;8.13;1.80;;;;;;;12.86;100.00;99664.34;4814225;29;20034;-77
2022/11/06 11:41:18;;;;;;;5.47;1.55;;;;;;;12.96;100.00;99664.00;4829239;29;20034;-77
2022/11/06 11:43:54;;;;;;;10.88;2.00;;;;;;;13.05;100.00;99662.00;4856843;29;20453;-77